sensor_id;sensor_type;location;lat;lon;timestamp;P1;durP1;ratioP1;P2;durP2;ratioP2
5876;SDS011;2964;42.144;24.730;2024-02-26T00:01:02;60.60;;;38.17;;
5876;SDS011;2964;42.144;24.730;2024-02-26T00:03:30;61.20;;;36.63;;
5876;SDS011;2964;42.144;24.730;2024-02-26T00:06:00;62.37;;;39.57;;
5876;SDS011;2964;42.144;24.730;2024-02-26T00:08:27;55.57;;;37.27;;
5876;SDS011;2964;42.144;24.730;2024-02-26T00:10:54;67.33;;;39.40;;
5876;SDS011;2964;42.144;24.730;2024-02-26T00:13:20;52.87;;;34.40;;
5876;SDS011;2964;42.144;24.730;2024-02-26T00:15:47;63.20;;;36.23;;
5876;SDS011;2964;42.144;24.730;2024-02-26T00:18:14;54.53;;;36.93;;
5876;SDS011;2964;42.144;24.730;2024-02-26T00:20:42;61.93;;;37.67;;
5876;SDS011;2964;42.144;24.730;2024-02-26T00:23:09;53.13;;;35.97;;
5876;SDS011;2964;42.144;24.730;2024-02-26T00:25:36;55.03;;;34.63;;
5876;SDS011;2964;42.144;24.730;2024-02-26T00:28:03;54.23;;;34.20;;
5876;SDS011;2964;42.144;24.730;2024-02-26T00:30:30;51.07;;;34.03;;
5876;SDS011;2964;42.144;24.730;2024-02-26T00:32:56;57.57;;;32.67;;
5876;SDS011;2964;42.144;24.730;2024-02-26T00:35:23;56.03;;;30.97;;
5876;SDS011;2964;42.144;24.730;2024-02-26T00:37:51;51.27;;;31.27;;
5876;SDS011;2964;42.144;24.730;2024-02-26T00:40:18;51.40;;;29.60;;
5876;SDS011;2964;42.144;24.730;2024-02-26T00:42:45;48.73;;;30.37;;
5876;SDS011;2964;42.144;24.730;2024-02-26T00:45:12;43.33;;;30.23;;
5876;SDS011;2964;42.144;24.730;2024-02-26T00:47:40;51.90;;;31.70;;
5876;SDS011;2964;42.144;24.730;2024-02-26T00:50:07;50.03;;;30.97;;
5876;SDS011;2964;42.144;24.730;2024-02-26T00:52:34;47.13;;;30.53;;
5876;SDS011;2964;42.144;24.730;2024-02-26T00:55:03;42.07;;;29.43;;
5876;SDS011;2964;42.144;24.730;2024-02-26T00:57:31;45.80;;;28.77;;
5876;SDS011;2964;42.144;24.730;2024-02-26T00:59:57;39.10;;;29.23;;
5876;SDS011;2964;42.144;24.730;2024-02-26T01:02:25;38.37;;;28.47;;
5876;SDS011;2964;42.144;24.730;2024-02-26T01:04:52;37.10;;;24.43;;
5876;SDS011;2964;42.144;24.730;2024-02-26T01:07:19;37.50;;;26.93;;
5876;SDS011;2964;42.144;24.730;2024-02-26T01:09:45;40.50;;;23.77;;
5876;SDS011;2964;42.144;24.730;2024-02-26T01:12:14;36.63;;;24.23;;
5876;SDS011;2964;42.144;24.730;2024-02-26T01:14:40;50.60;;;26.20;;
5876;SDS011;2964;42.144;24.730;2024-02-26T01:17:07;38.83;;;23.93;;
5876;SDS011;2964;42.144;24.730;2024-02-26T01:19:34;33.87;;;23.43;;
5876;SDS011;2964;42.144;24.730;2024-02-26T01:22:00;31.73;;;24.50;;
5876;SDS011;2964;42.144;24.730;2024-02-26T01:24:27;33.80;;;23.80;;
5876;SDS011;2964;42.144;24.730;2024-02-26T01:26:54;34.43;;;23.90;;
5876;SDS011;2964;42.144;24.730;2024-02-26T01:29:22;31.13;;;24.20;;
5876;SDS011;2964;42.144;24.730;2024-02-26T01:31:49;34.03;;;23.77;;
5876;SDS011;2964;42.144;24.730;2024-02-26T01:34:15;31.00;;;22.30;;
5876;SDS011;2964;42.144;24.730;2024-02-26T01:36:43;32.10;;;23.60;;
5876;SDS011;2964;42.144;24.730;2024-02-26T01:39:10;33.60;;;23.77;;
5876;SDS011;2964;42.144;24.730;2024-02-26T01:41:37;31.80;;;22.23;;
5876;SDS011;2964;42.144;24.730;2024-02-26T01:44:04;32.53;;;24.10;;
5876;SDS011;2964;42.144;24.730;2024-02-26T01:46:32;32.50;;;22.80;;
5876;SDS011;2964;42.144;24.730;2024-02-26T01:49:01;33.90;;;23.23;;
5876;SDS011;2964;42.144;24.730;2024-02-26T01:51:29;34.93;;;23.67;;
5876;SDS011;2964;42.144;24.730;2024-02-26T01:53:57;36.03;;;25.83;;
5876;SDS011;2964;42.144;24.730;2024-02-26T01:56:24;32.30;;;24.40;;
5876;SDS011;2964;42.144;24.730;2024-02-26T01:58:55;40.47;;;25.07;;
5876;SDS011;2964;42.144;24.730;2024-02-26T02:01:23;34.57;;;25.10;;
5876;SDS011;2964;42.144;24.730;2024-02-26T02:03:54;34.70;;;24.03;;
5876;SDS011;2964;42.144;24.730;2024-02-26T02:06:24;35.57;;;22.80;;
5876;SDS011;2964;42.144;24.730;2024-02-26T02:08:51;30.93;;;23.13;;
5876;SDS011;2964;42.144;24.730;2024-02-26T02:11:19;30.87;;;23.33;;
5876;SDS011;2964;42.144;24.730;2024-02-26T02:13:45;34.93;;;22.23;;
5876;SDS011;2964;42.144;24.730;2024-02-26T02:16:12;29.40;;;23.37;;
5876;SDS011;2964;42.144;24.730;2024-02-26T02:18:39;29.40;;;22.53;;
5876;SDS011;2964;42.144;24.730;2024-02-26T02:21:07;32.47;;;22.30;;
5876;SDS011;2964;42.144;24.730;2024-02-26T02:23:34;35.87;;;22.20;;
5876;SDS011;2964;42.144;24.730;2024-02-26T02:26:01;34.43;;;21.80;;
5876;SDS011;2964;42.144;24.730;2024-02-26T02:28:27;34.43;;;23.00;;
5876;SDS011;2964;42.144;24.730;2024-02-26T02:30:54;29.23;;;22.10;;
5876;SDS011;2964;42.144;24.730;2024-02-26T02:33:21;29.33;;;22.40;;
5876;SDS011;2964;42.144;24.730;2024-02-26T02:35:49;32.77;;;22.77;;
5876;SDS011;2964;42.144;24.730;2024-02-26T02:38:30;29.90;;;22.70;;
5876;SDS011;2964;42.144;24.730;2024-02-26T02:40:59;29.90;;;22.30;;
5876;SDS011;2964;42.144;24.730;2024-02-26T02:43:25;34.80;;;24.23;;
5876;SDS011;2964;42.144;24.730;2024-02-26T02:45:52;31.77;;;21.83;;
5876;SDS011;2964;42.144;24.730;2024-02-26T02:48:19;29.70;;;23.23;;
5876;SDS011;2964;42.144;24.730;2024-02-26T02:50:45;27.77;;;21.93;;
5876;SDS011;2964;42.144;24.730;2024-02-26T02:53:12;29.63;;;23.13;;
5876;SDS011;2964;42.144;24.730;2024-02-26T02:55:42;34.40;;;23.20;;
5876;SDS011;2964;42.144;24.730;2024-02-26T02:58:09;30.13;;;23.43;;
5876;SDS011;2964;42.144;24.730;2024-02-26T03:00:35;32.90;;;22.53;;
5876;SDS011;2964;42.144;24.730;2024-02-26T03:03:02;34.97;;;24.53;;
5876;SDS011;2964;42.144;24.730;2024-02-26T03:05:29;30.07;;;22.40;;
5876;SDS011;2964;42.144;24.730;2024-02-26T03:07:56;32.33;;;23.17;;
5876;SDS011;2964;42.144;24.730;2024-02-26T03:10:22;35.60;;;21.93;;
5876;SDS011;2964;42.144;24.730;2024-02-26T03:12:51;29.23;;;21.63;;
5876;SDS011;2964;42.144;24.730;2024-02-26T03:15:17;29.90;;;23.70;;
5876;SDS011;2964;42.144;24.730;2024-02-26T03:17:44;38.73;;;24.30;;
5876;SDS011;2964;42.144;24.730;2024-02-26T03:20:11;31.10;;;22.33;;
5876;SDS011;2964;42.144;24.730;2024-02-26T03:22:38;31.93;;;23.13;;
5876;SDS011;2964;42.144;24.730;2024-02-26T03:25:05;32.73;;;21.30;;
5876;SDS011;2964;42.144;24.730;2024-02-26T03:27:32;29.90;;;22.23;;
5876;SDS011;2964;42.144;24.730;2024-02-26T03:30:00;33.60;;;23.03;;
5876;SDS011;2964;42.144;24.730;2024-02-26T03:32:27;38.30;;;27.00;;
5876;SDS011;2964;42.144;24.730;2024-02-26T03:34:54;35.13;;;24.87;;
5876;SDS011;2964;42.144;24.730;2024-02-26T03:37:21;44.20;;;30.47;;
5876;SDS011;2964;42.144;24.730;2024-02-26T03:39:47;43.37;;;29.60;;
5876;SDS011;2964;42.144;24.730;2024-02-26T03:42:14;52.20;;;29.50;;
5876;SDS011;2964;42.144;24.730;2024-02-26T03:44:41;43.90;;;28.67;;
5876;SDS011;2964;42.144;24.730;2024-02-26T03:47:09;40.97;;;29.57;;
5876;SDS011;2964;42.144;24.730;2024-02-26T03:49:36;41.67;;;30.73;;
5876;SDS011;2964;42.144;24.730;2024-02-26T03:52:03;42.30;;;29.53;;
5876;SDS011;2964;42.144;24.730;2024-02-26T03:54:30;44.63;;;29.30;;
5876;SDS011;2964;42.144;24.730;2024-02-26T03:56:56;47.67;;;30.10;;
5876;SDS011;2964;42.144;24.730;2024-02-26T03:59:23;44.27;;;29.70;;
5876;SDS011;2964;42.144;24.730;2024-02-26T04:01:50;39.40;;;29.53;;
5876;SDS011;2964;42.144;24.730;2024-02-26T04:04:18;38.90;;;29.80;;
5876;SDS011;2964;42.144;24.730;2024-02-26T04:06:45;41.33;;;29.87;;
5876;SDS011;2964;42.144;24.730;2024-02-26T04:09:12;41.37;;;29.73;;
5876;SDS011;2964;42.144;24.730;2024-02-26T04:11:39;43.93;;;30.90;;
5876;SDS011;2964;42.144;24.730;2024-02-26T04:14:08;45.37;;;29.57;;
5876;SDS011;2964;42.144;24.730;2024-02-26T04:16:36;41.37;;;29.50;;
5876;SDS011;2964;42.144;24.730;2024-02-26T04:19:03;42.90;;;30.77;;
5876;SDS011;2964;42.144;24.730;2024-02-26T04:21:31;47.87;;;30.27;;
5876;SDS011;2964;42.144;24.730;2024-02-26T04:23:57;55.37;;;31.73;;
5876;SDS011;2964;42.144;24.730;2024-02-26T04:26:26;44.33;;;28.77;;
5876;SDS011;2964;42.144;24.730;2024-02-26T04:28:53;41.60;;;27.40;;
5876;SDS011;2964;42.144;24.730;2024-02-26T04:31:20;38.47;;;26.57;;
5876;SDS011;2964;42.144;24.730;2024-02-26T04:33:46;31.57;;;24.57;;
5876;SDS011;2964;42.144;24.730;2024-02-26T04:36:13;35.80;;;24.90;;
5876;SDS011;2964;42.144;24.730;2024-02-26T04:38:42;36.27;;;24.80;;
5876;SDS011;2964;42.144;24.730;2024-02-26T04:41:09;31.93;;;23.23;;
5876;SDS011;2964;42.144;24.730;2024-02-26T04:43:35;25.63;;;21.23;;
5876;SDS011;2964;42.144;24.730;2024-02-26T04:46:06;25.43;;;20.50;;
5876;SDS011;2964;42.144;24.730;2024-02-26T04:48:33;28.83;;;20.57;;
5876;SDS011;2964;42.144;24.730;2024-02-26T04:51:00;25.53;;;20.00;;
5876;SDS011;2964;42.144;24.730;2024-02-26T04:53:27;23.83;;;17.20;;
5876;SDS011;2964;42.144;24.730;2024-02-26T04:55:55;24.87;;;18.53;;
5876;SDS011;2964;42.144;24.730;2024-02-26T04:58:22;23.90;;;17.93;;
5876;SDS011;2964;42.144;24.730;2024-02-26T05:00:49;24.13;;;15.73;;
5876;SDS011;2964;42.144;24.730;2024-02-26T05:03:16;18.63;;;14.40;;
5876;SDS011;2964;42.144;24.730;2024-02-26T05:05:42;20.03;;;15.03;;
5876;SDS011;2964;42.144;24.730;2024-02-26T05:08:09;18.73;;;15.77;;
5876;SDS011;2964;42.144;24.730;2024-02-26T05:10:36;22.17;;;15.27;;
5876;SDS011;2964;42.144;24.730;2024-02-26T05:13:07;20.10;;;16.57;;
5876;SDS011;2964;42.144;24.730;2024-02-26T05:15:33;22.57;;;16.00;;
5876;SDS011;2964;42.144;24.730;2024-02-26T05:18:00;25.83;;;16.17;;
5876;SDS011;2964;42.144;24.730;2024-02-26T05:20:27;24.10;;;17.00;;
5876;SDS011;2964;42.144;24.730;2024-02-26T05:22:54;22.47;;;14.83;;
5876;SDS011;2964;42.144;24.730;2024-02-26T05:25:20;22.07;;;16.27;;
5876;SDS011;2964;42.144;24.730;2024-02-26T05:27:47;23.93;;;16.33;;
5876;SDS011;2964;42.144;24.730;2024-02-26T05:30:15;27.70;;;15.87;;
5876;SDS011;2964;42.144;24.730;2024-02-26T05:32:42;23.67;;;16.27;;
5876;SDS011;2964;42.144;24.730;2024-02-26T05:35:09;22.23;;;15.70;;
5876;SDS011;2964;42.144;24.730;2024-02-26T05:37:36;21.43;;;16.63;;
5876;SDS011;2964;42.144;24.730;2024-02-26T05:40:02;27.20;;;15.80;;
5876;SDS011;2964;42.144;24.730;2024-02-26T05:42:30;21.63;;;16.73;;
5876;SDS011;2964;42.144;24.730;2024-02-26T05:44:58;23.83;;;16.43;;
5876;SDS011;2964;42.144;24.730;2024-02-26T05:47:31;20.73;;;15.23;;
5876;SDS011;2964;42.144;24.730;2024-02-26T05:49:58;24.07;;;17.23;;
5876;SDS011;2964;42.144;24.730;2024-02-26T05:52:26;24.30;;;17.33;;
5876;SDS011;2964;42.144;24.730;2024-02-26T05:54:52;23.27;;;17.63;;
5876;SDS011;2964;42.144;24.730;2024-02-26T05:57:19;22.47;;;16.60;;
5876;SDS011;2964;42.144;24.730;2024-02-26T05:59:46;18.97;;;15.80;;
5876;SDS011;2964;42.144;24.730;2024-02-26T06:02:12;26.67;;;17.07;;
5876;SDS011;2964;42.144;24.730;2024-02-26T06:04:40;32.50;;;18.00;;
5876;SDS011;2964;42.144;24.730;2024-02-26T06:07:07;24.43;;;17.33;;
5876;SDS011;2964;42.144;24.730;2024-02-26T06:09:34;19.50;;;15.13;;
5876;SDS011;2964;42.144;24.730;2024-02-26T06:12:01;21.13;;;15.23;;
5876;SDS011;2964;42.144;24.730;2024-02-26T06:14:27;17.60;;;15.27;;
5876;SDS011;2964;42.144;24.730;2024-02-26T06:16:54;19.43;;;14.83;;
5876;SDS011;2964;42.144;24.730;2024-02-26T06:19:21;21.03;;;15.07;;
5876;SDS011;2964;42.144;24.730;2024-02-26T06:21:49;17.83;;;14.57;;
5876;SDS011;2964;42.144;24.730;2024-02-26T06:24:16;24.10;;;15.33;;
5876;SDS011;2964;42.144;24.730;2024-02-26T06:26:42;19.43;;;16.07;;
5876;SDS011;2964;42.144;24.730;2024-02-26T06:29:09;21.73;;;15.70;;
5876;SDS011;2964;42.144;24.730;2024-02-26T06:31:36;22.40;;;15.13;;
5876;SDS011;2964;42.144;24.730;2024-02-26T06:34:02;18.20;;;15.67;;
5876;SDS011;2964;42.144;24.730;2024-02-26T06:36:29;19.97;;;15.00;;
5876;SDS011;2964;42.144;24.730;2024-02-26T06:38:58;19.57;;;15.47;;
5876;SDS011;2964;42.144;24.730;2024-02-26T06:41:25;23.53;;;15.23;;
5876;SDS011;2964;42.144;24.730;2024-02-26T06:43:52;20.57;;;14.80;;
5876;SDS011;2964;42.144;24.730;2024-02-26T06:46:19;21.07;;;15.23;;
5876;SDS011;2964;42.144;24.730;2024-02-26T06:48:47;20.07;;;16.33;;
5876;SDS011;2964;42.144;24.730;2024-02-26T06:51:14;20.60;;;15.57;;
5876;SDS011;2964;42.144;24.730;2024-02-26T06:53:40;21.10;;;15.37;;
5876;SDS011;2964;42.144;24.730;2024-02-26T06:56:08;20.23;;;16.67;;
5876;SDS011;2964;42.144;24.730;2024-02-26T06:58:35;22.83;;;17.40;;
5876;SDS011;2964;42.144;24.730;2024-02-26T07:01:02;22.33;;;17.97;;
5876;SDS011;2964;42.144;24.730;2024-02-26T07:03:29;28.30;;;19.20;;
5876;SDS011;2964;42.144;24.730;2024-02-26T07:05:55;26.47;;;19.57;;
5876;SDS011;2964;42.144;24.730;2024-02-26T07:08:22;27.40;;;20.00;;
5876;SDS011;2964;42.144;24.730;2024-02-26T07:10:49;24.83;;;19.93;;
5876;SDS011;2964;42.144;24.730;2024-02-26T07:13:17;26.70;;;21.60;;
5876;SDS011;2964;42.144;24.730;2024-02-26T07:15:44;28.27;;;20.73;;
5876;SDS011;2964;42.144;24.730;2024-02-26T07:18:10;33.63;;;19.73;;
5876;SDS011;2964;42.144;24.730;2024-02-26T07:20:37;27.47;;;21.23;;
5876;SDS011;2964;42.144;24.730;2024-02-26T07:23:04;26.03;;;20.10;;
5876;SDS011;2964;42.144;24.730;2024-02-26T07:25:31;30.13;;;20.40;;
5876;SDS011;2964;42.144;24.730;2024-02-26T07:27:58;32.10;;;21.70;;
5876;SDS011;2964;42.144;24.730;2024-02-26T07:30:26;26.80;;;20.63;;
5876;SDS011;2964;42.144;24.730;2024-02-26T07:32:53;34.30;;;21.80;;
5876;SDS011;2964;42.144;24.730;2024-02-26T07:35:19;28.00;;;21.47;;
5876;SDS011;2964;42.144;24.730;2024-02-26T07:37:47;31.63;;;21.73;;
5876;SDS011;2964;42.144;24.730;2024-02-26T07:40:15;189.20;;;32.63;;
5876;SDS011;2964;42.144;24.730;2024-02-26T07:42:41;36.60;;;23.10;;
5876;SDS011;2964;42.144;24.730;2024-02-26T07:45:08;32.57;;;23.47;;
5876;SDS011;2964;42.144;24.730;2024-02-26T07:47:37;30.43;;;23.97;;
5876;SDS011;2964;42.144;24.730;2024-02-26T07:50:06;38.50;;;22.80;;
5876;SDS011;2964;42.144;24.730;2024-02-26T07:52:33;33.67;;;22.97;;
5876;SDS011;2964;42.144;24.730;2024-02-26T07:55:00;33.27;;;24.20;;
5876;SDS011;2964;42.144;24.730;2024-02-26T07:57:27;34.33;;;25.33;;
5876;SDS011;2964;42.144;24.730;2024-02-26T07:59:53;34.60;;;23.87;;
5876;SDS011;2964;42.144;24.730;2024-02-26T08:02:20;41.07;;;24.97;;
5876;SDS011;2964;42.144;24.730;2024-02-26T08:04:49;42.13;;;26.80;;
5876;SDS011;2964;42.144;24.730;2024-02-26T08:07:16;37.57;;;26.37;;
5876;SDS011;2964;42.144;24.730;2024-02-26T08:09:42;43.57;;;26.73;;
5876;SDS011;2964;42.144;24.730;2024-02-26T08:12:09;36.50;;;25.77;;
5876;SDS011;2964;42.144;24.730;2024-02-26T08:14:36;41.97;;;25.33;;
5876;SDS011;2964;42.144;24.730;2024-02-26T08:17:03;35.97;;;27.57;;
5876;SDS011;2964;42.144;24.730;2024-02-26T08:19:29;38.10;;;25.60;;
5876;SDS011;2964;42.144;24.730;2024-02-26T08:21:57;43.67;;;27.50;;
5876;SDS011;2964;42.144;24.730;2024-02-26T08:24:24;35.47;;;25.50;;
5876;SDS011;2964;42.144;24.730;2024-02-26T08:26:51;51.10;;;31.73;;
5876;SDS011;2964;42.144;24.730;2024-02-26T08:29:17;45.57;;;24.93;;
5876;SDS011;2964;42.144;24.730;2024-02-26T08:31:44;37.73;;;24.27;;
5876;SDS011;2964;42.144;24.730;2024-02-26T08:34:11;38.07;;;24.70;;
5876;SDS011;2964;42.144;24.730;2024-02-26T08:36:37;41.80;;;25.13;;
5876;SDS011;2964;42.144;24.730;2024-02-26T08:39:05;43.53;;;24.97;;
5876;SDS011;2964;42.144;24.730;2024-02-26T08:41:34;38.70;;;25.80;;
5876;SDS011;2964;42.144;24.730;2024-02-26T08:44:00;40.60;;;24.37;;
5876;SDS011;2964;42.144;24.730;2024-02-26T08:46:27;41.67;;;25.50;;
5876;SDS011;2964;42.144;24.730;2024-02-26T08:48:54;33.30;;;24.30;;
5876;SDS011;2964;42.144;24.730;2024-02-26T08:51:20;41.93;;;24.60;;
5876;SDS011;2964;42.144;24.730;2024-02-26T08:53:47;34.10;;;23.33;;
5876;SDS011;2964;42.144;24.730;2024-02-26T08:56:16;40.47;;;25.07;;
5876;SDS011;2964;42.144;24.730;2024-02-26T08:58:43;43.67;;;25.70;;
5876;SDS011;2964;42.144;24.730;2024-02-26T09:01:09;36.27;;;25.00;;
5876;SDS011;2964;42.144;24.730;2024-02-26T09:03:36;30.07;;;23.13;;
5876;SDS011;2964;42.144;24.730;2024-02-26T09:06:03;32.17;;;21.37;;
5876;SDS011;2964;42.144;24.730;2024-02-26T09:08:31;36.50;;;23.97;;
5876;SDS011;2964;42.144;24.730;2024-02-26T09:10:57;34.13;;;23.20;;
5876;SDS011;2964;42.144;24.730;2024-02-26T09:13:25;35.63;;;23.83;;
5876;SDS011;2964;42.144;24.730;2024-02-26T09:15:52;46.77;;;24.93;;
5876;SDS011;2964;42.144;24.730;2024-02-26T09:18:19;34.60;;;23.77;;
5876;SDS011;2964;42.144;24.730;2024-02-26T09:20:46;37.20;;;24.97;;
5876;SDS011;2964;42.144;24.730;2024-02-26T09:23:13;35.67;;;24.50;;
5876;SDS011;2964;42.144;24.730;2024-02-26T09:25:40;42.77;;;24.83;;
5876;SDS011;2964;42.144;24.730;2024-02-26T09:28:06;31.93;;;23.60;;
5876;SDS011;2964;42.144;24.730;2024-02-26T09:30:34;29.93;;;23.87;;
5876;SDS011;2964;42.144;24.730;2024-02-26T09:33:01;47.77;;;25.00;;
5876;SDS011;2964;42.144;24.730;2024-02-26T09:35:28;33.63;;;24.03;;
5876;SDS011;2964;42.144;24.730;2024-02-26T09:37:55;30.37;;;22.93;;
5876;SDS011;2964;42.144;24.730;2024-02-26T09:40:22;33.83;;;23.80;;
5876;SDS011;2964;42.144;24.730;2024-02-26T09:42:49;36.93;;;22.73;;
5876;SDS011;2964;42.144;24.730;2024-02-26T09:45:23;34.57;;;24.03;;
5876;SDS011;2964;42.144;24.730;2024-02-26T09:47:55;33.97;;;24.07;;
5876;SDS011;2964;42.144;24.730;2024-02-26T09:50:22;29.83;;;23.10;;
5876;SDS011;2964;42.144;24.730;2024-02-26T09:52:49;32.37;;;23.20;;
5876;SDS011;2964;42.144;24.730;2024-02-26T09:55:16;33.13;;;22.23;;
5876;SDS011;2964;42.144;24.730;2024-02-26T09:57:45;35.43;;;22.60;;
5876;SDS011;2964;42.144;24.730;2024-02-26T10:00:14;30.33;;;23.07;;
5876;SDS011;2964;42.144;24.730;2024-02-26T10:02:44;33.20;;;22.63;;
5876;SDS011;2964;42.144;24.730;2024-02-26T10:05:14;28.17;;;21.67;;
5876;SDS011;2964;42.144;24.730;2024-02-26T10:07:43;34.37;;;22.20;;
5876;SDS011;2964;42.144;24.730;2024-02-26T10:10:10;29.10;;;21.67;;
5876;SDS011;2964;42.144;24.730;2024-02-26T10:12:37;35.17;;;22.37;;
5876;SDS011;2964;42.144;24.730;2024-02-26T10:15:04;26.87;;;21.53;;
5876;SDS011;2964;42.144;24.730;2024-02-26T10:17:31;35.17;;;22.60;;
5876;SDS011;2964;42.144;24.730;2024-02-26T10:20:10;32.00;;;22.30;;
5876;SDS011;2964;42.144;24.730;2024-02-26T10:22:39;32.80;;;22.73;;
5876;SDS011;2964;42.144;24.730;2024-02-26T10:25:07;34.33;;;22.83;;
5876;SDS011;2964;42.144;24.730;2024-02-26T10:27:34;27.30;;;22.60;;
5876;SDS011;2964;42.144;24.730;2024-02-26T10:30:02;32.43;;;22.80;;
5876;SDS011;2964;42.144;24.730;2024-02-26T10:32:30;33.67;;;21.83;;
5876;SDS011;2964;42.144;24.730;2024-02-26T10:34:56;27.90;;;20.83;;
5876;SDS011;2964;42.144;24.730;2024-02-26T10:37:23;28.90;;;21.90;;
5876;SDS011;2964;42.144;24.730;2024-02-26T10:39:51;30.77;;;22.27;;
5876;SDS011;2964;42.144;24.730;2024-02-26T10:42:18;40.20;;;23.50;;
5876;SDS011;2964;42.144;24.730;2024-02-26T10:44:45;27.23;;;22.77;;
5876;SDS011;2964;42.144;24.730;2024-02-26T10:47:13;37.63;;;24.63;;
5876;SDS011;2964;42.144;24.730;2024-02-26T10:49:44;29.43;;;22.63;;
5876;SDS011;2964;42.144;24.730;2024-02-26T10:52:12;26.90;;;21.97;;
5876;SDS011;2964;42.144;24.730;2024-02-26T10:54:41;29.20;;;23.33;;
5876;SDS011;2964;42.144;24.730;2024-02-26T10:57:11;32.03;;;22.70;;
5876;SDS011;2964;42.144;24.730;2024-02-26T10:59:38;35.10;;;22.83;;
5876;SDS011;2964;42.144;24.730;2024-02-26T11:02:08;35.37;;;22.03;;
5876;SDS011;2964;42.144;24.730;2024-02-26T11:04:36;23.73;;;18.40;;
5876;SDS011;2964;42.144;24.730;2024-02-26T11:07:04;29.03;;;20.97;;
5876;SDS011;2964;42.144;24.730;2024-02-26T11:09:32;21.40;;;19.10;;
5876;SDS011;2964;42.144;24.730;2024-02-26T11:11:59;28.67;;;20.67;;
5876;SDS011;2964;42.144;24.730;2024-02-26T11:14:28;21.10;;;18.83;;
5876;SDS011;2964;42.144;24.730;2024-02-26T11:16:56;22.23;;;17.03;;
5876;SDS011;2964;42.144;24.730;2024-02-26T11:19:24;17.40;;;13.33;;
5876;SDS011;2964;42.144;24.730;2024-02-26T11:21:52;15.83;;;13.63;;
5876;SDS011;2964;42.144;24.730;2024-02-26T11:24:18;20.07;;;13.67;;
5876;SDS011;2964;42.144;24.730;2024-02-26T11:26:45;14.97;;;13.30;;
5876;SDS011;2964;42.144;24.730;2024-02-26T11:29:21;20.30;;;13.93;;
5876;SDS011;2964;42.144;24.730;2024-02-26T11:31:50;28.33;;;15.40;;
5876;SDS011;2964;42.144;24.730;2024-02-26T11:34:17;21.07;;;15.50;;
5876;SDS011;2964;42.144;24.730;2024-02-26T11:36:44;22.13;;;15.83;;
5876;SDS011;2964;42.144;24.730;2024-02-26T11:39:12;17.40;;;14.53;;
5876;SDS011;2964;42.144;24.730;2024-02-26T11:41:42;15.57;;;13.80;;
5876;SDS011;2964;42.144;24.730;2024-02-26T11:44:08;16.77;;;14.67;;
5876;SDS011;2964;42.144;24.730;2024-02-26T11:46:38;19.37;;;14.40;;
5876;SDS011;2964;42.144;24.730;2024-02-26T11:52:00;20.13;;;14.97;;
5876;SDS011;2964;42.144;24.730;2024-02-26T11:54:38;18.33;;;15.03;;
5876;SDS011;2964;42.144;24.730;2024-02-26T11:57:19;17.13;;;15.37;;
5876;SDS011;2964;42.144;24.730;2024-02-26T11:59:50;20.97;;;15.50;;
5876;SDS011;2964;42.144;24.730;2024-02-26T12:05:12;20.40;;;15.50;;
5876;SDS011;2964;42.144;24.730;2024-02-26T12:07:42;20.80;;;15.83;;
5876;SDS011;2964;42.144;24.730;2024-02-26T12:10:23;20.70;;;15.63;;
5876;SDS011;2964;42.144;24.730;2024-02-26T12:12:54;17.20;;;15.27;;
5876;SDS011;2964;42.144;24.730;2024-02-26T12:15:29;21.47;;;16.80;;
5876;SDS011;2964;42.144;24.730;2024-02-26T12:17:57;18.27;;;15.07;;
5876;SDS011;2964;42.144;24.730;2024-02-26T12:20:26;27.53;;;16.77;;
5876;SDS011;2964;42.144;24.730;2024-02-26T12:22:53;20.77;;;15.90;;
5876;SDS011;2964;42.144;24.730;2024-02-26T12:25:23;23.20;;;16.80;;
5876;SDS011;2964;42.144;24.730;2024-02-26T12:27:51;21.10;;;16.17;;
5876;SDS011;2964;42.144;24.730;2024-02-26T12:30:18;17.57;;;15.57;;
5876;SDS011;2964;42.144;24.730;2024-02-26T12:32:46;21.03;;;14.90;;
5876;SDS011;2964;42.144;24.730;2024-02-26T12:35:14;21.43;;;16.60;;
5876;SDS011;2964;42.144;24.730;2024-02-26T12:37:43;20.20;;;15.47;;
5876;SDS011;2964;42.144;24.730;2024-02-26T12:40:10;18.43;;;16.53;;
5876;SDS011;2964;42.144;24.730;2024-02-26T12:42:38;22.73;;;16.23;;
5876;SDS011;2964;42.144;24.730;2024-02-26T12:45:06;18.27;;;16.30;;
5876;SDS011;2964;42.144;24.730;2024-02-26T12:47:35;22.33;;;16.93;;
5876;SDS011;2964;42.144;24.730;2024-02-26T12:50:02;22.93;;;16.73;;
5876;SDS011;2964;42.144;24.730;2024-02-26T12:52:30;19.97;;;16.53;;
5876;SDS011;2964;42.144;24.730;2024-02-26T12:54:58;19.03;;;16.57;;
5876;SDS011;2964;42.144;24.730;2024-02-26T12:57:26;22.67;;;16.77;;
5876;SDS011;2964;42.144;24.730;2024-02-26T12:59:55;19.33;;;16.77;;
5876;SDS011;2964;42.144;24.730;2024-02-26T13:02:22;18.30;;;16.50;;
5876;SDS011;2964;42.144;24.730;2024-02-26T13:04:49;24.17;;;16.67;;
5876;SDS011;2964;42.144;24.730;2024-02-26T13:07:16;24.60;;;17.00;;
5876;SDS011;2964;42.144;24.730;2024-02-26T13:09:43;18.10;;;16.03;;
5876;SDS011;2964;42.144;24.730;2024-02-26T13:12:11;19.33;;;16.03;;
5876;SDS011;2964;42.144;24.730;2024-02-26T13:14:38;17.07;;;15.30;;
5876;SDS011;2964;42.144;24.730;2024-02-26T13:17:05;24.20;;;16.57;;
5876;SDS011;2964;42.144;24.730;2024-02-26T13:19:32;25.10;;;17.20;;
5876;SDS011;2964;42.144;24.730;2024-02-26T13:22:03;24.90;;;17.13;;
5876;SDS011;2964;42.144;24.730;2024-02-26T13:24:31;23.10;;;16.70;;
5876;SDS011;2964;42.144;24.730;2024-02-26T13:26:58;26.90;;;17.13;;
5876;SDS011;2964;42.144;24.730;2024-02-26T13:29:27;23.30;;;16.17;;
5876;SDS011;2964;42.144;24.730;2024-02-26T13:31:54;28.90;;;16.07;;
5876;SDS011;2964;42.144;24.730;2024-02-26T13:34:22;23.20;;;16.33;;
5876;SDS011;2964;42.144;24.730;2024-02-26T13:36:50;23.07;;;16.83;;
5876;SDS011;2964;42.144;24.730;2024-02-26T13:39:21;18.73;;;15.90;;
5876;SDS011;2964;42.144;24.730;2024-02-26T13:41:48;24.53;;;15.87;;
5876;SDS011;2964;42.144;24.730;2024-02-26T13:44:15;23.47;;;16.27;;
5876;SDS011;2964;42.144;24.730;2024-02-26T13:46:43;23.93;;;15.90;;
5876;SDS011;2964;42.144;24.730;2024-02-26T13:49:10;27.47;;;15.97;;
5876;SDS011;2964;42.144;24.730;2024-02-26T13:51:36;26.87;;;16.67;;
5876;SDS011;2964;42.144;24.730;2024-02-26T13:54:03;24.33;;;14.00;;
5876;SDS011;2964;42.144;24.730;2024-02-26T13:56:30;17.90;;;14.37;;
5876;SDS011;2964;42.144;24.730;2024-02-26T13:58:57;23.60;;;15.37;;
5876;SDS011;2964;42.144;24.730;2024-02-26T14:01:24;23.77;;;16.47;;
5876;SDS011;2964;42.144;24.730;2024-02-26T14:03:52;24.07;;;14.53;;
5876;SDS011;2964;42.144;24.730;2024-02-26T14:06:20;19.50;;;14.60;;
5876;SDS011;2964;42.144;24.730;2024-02-26T14:08:47;22.73;;;15.17;;
5876;SDS011;2964;42.144;24.730;2024-02-26T14:11:14;18.73;;;14.43;;
5876;SDS011;2964;42.144;24.730;2024-02-26T14:13:40;21.27;;;14.60;;
5876;SDS011;2964;42.144;24.730;2024-02-26T14:16:07;23.57;;;14.03;;
5876;SDS011;2964;42.144;24.730;2024-02-26T14:18:35;19.03;;;12.80;;
5876;SDS011;2964;42.144;24.730;2024-02-26T14:21:03;16.87;;;14.07;;
5876;SDS011;2964;42.144;24.730;2024-02-26T14:23:30;19.50;;;13.57;;
5876;SDS011;2964;42.144;24.730;2024-02-26T14:25:57;16.00;;;13.90;;
5876;SDS011;2964;42.144;24.730;2024-02-26T14:28:25;20.90;;;13.27;;
5876;SDS011;2964;42.144;24.730;2024-02-26T14:30:53;15.20;;;13.40;;
5876;SDS011;2964;42.144;24.730;2024-02-26T14:33:20;24.40;;;13.43;;
5876;SDS011;2964;42.144;24.730;2024-02-26T14:35:47;16.70;;;13.57;;
5876;SDS011;2964;42.144;24.730;2024-02-26T14:38:15;18.83;;;11.73;;
5876;SDS011;2964;42.144;24.730;2024-02-26T14:40:42;10.23;;;9.23;;
5876;SDS011;2964;42.144;24.730;2024-02-26T14:43:08;9.37;;;8.73;;